This is the latest recevied weather packets stored in our database for station/object K1ADK-1. If no packets are shown the sender has not sent any weather packets the latest 10 day(s).
| Time | Temp. | Humidity | Pressure | Rain* | Wind** | Luminosity | Snow |
|---|---|---|---|---|---|---|---|
| 1777505116 | 10.56° C | 77% | 1010.8 hPa | 0 mm | - | 13 W/m² | - |
| 1777503316 | 11.11° C | 76% | 1010.7 hPa | 0 mm | - | 97 W/m² | - |
| 1777502756 | 11.67° C | 75% | 1010.7 hPa | 0 mm | - | 91 W/m² | - |
| 1777497916 | 12.22° C | 73% | 1011.9 hPa | 0 mm | - | 159 W/m² | - |
| 1777497316 | 12.22° C | 73% | 1011.7 hPa | 0 mm | - | 196 W/m² | - |
| 1777493116 | 12.22° C | 72% | 1013.1 hPa | 0 mm | - | 359 W/m² | - |
| 1777488336 | 14.44° C | 66% | 1014 hPa | 0 mm | - | 685 W/m² | - |
| 1777487715 | 15° C | 65% | 1013.8 hPa | 0 mm | - | 696 W/m² | - |
| 1777486516 | 14.44° C | 64% | 1014.4 hPa | 0 mm | - | 766 W/m² | - |
| 1777482315 | 15.56° C | 63% | 1014.5 hPa | 0 mm | - | 675 W/m² | - |
| 1777480515 | 15° C | 62% | 1014.8 hPa | 0 mm | - | 526 W/m² | - |
| 1777479915 | 16.11° C | 61% | 1015 hPa | 0 mm | - | 375 W/m² | - |
| 1777473915 | 15° C | 60% | 1015 hPa | 0 mm | - | 526 W/m² | - |
| 1777472117 | 14.44° C | 62% | 1014.9 hPa | 0 mm | - | 603 W/m² | - |
| 1777460117 | 8.33° C | 85% | 1016.6 hPa | 0 mm | - | 74 W/m² | - |
| 1777458917 | 8.33° C | 84% | 1016.5 hPa | 0 mm | - | 42 W/m² | - |
| 1777457717 | 8.33° C | 84% | 1016.6 hPa | 0 mm | - | 16 W/m² | - |
| 1777451117 | 8.89° C | 80% | 1016.4 hPa | 0 mm | - | 0 W/m² | - |
| 1777446937 | 9.44° C | 77% | 1017 hPa | 0 mm | - | 0 W/m² | - |
| 1777442716 | 10° C | 74% | 1017.7 hPa | 0 mm | - | 0 W/m² | - |
| 1777438516 | 10° C | 73% | 1019.1 hPa | 0 mm | - | 0 W/m² | - |
| 1777433716 | 10° C | 74% | 1018.5 hPa | 0 mm | - | 0 W/m² | - |
| 1777430136 | 10° C | 72% | 1018 hPa | 0 mm | - | 0 W/m² | - |
| 1777425936 | 10.56° C | 68% | 1018.8 hPa | 0 mm | - | 0 W/m² | - |
| 1777424156 | 11.11° C | 63% | 1018.5 hPa | 0 mm | - | 0 W/m² | - |
* Rain latest hour (hover to see other rain measurements)
** Current wind speed in m/s (hover to see current wind gust speed)